Terminal Aerodrome Forecast
Issued by NWS

Home | Current Version | Previous Version | Text Only | Print | Product List | Glossary Off
Versions: 1 2 3 4 5 6 7 8 9 10 11 12 13

315
FTUS43 KMPX 241120
TAFAXN
TAF
KAXN 241120Z 2412/2512 30009KT P6SM VCSH SCT060
     FM241400 29014G22KT P6SM VCSH SCT025 BKN040
     FM242100 31015G23KT P6SM BKN050
     FM250200 32010KT P6SM BKN050=

USA.gov is the U.S. government's official web portal to all federal, state and local government web resources and services.